• Join FlightAware (Why Join?)
  • Login
  • US Flag 
05:55PM EDT


 

Airport Tracker/Info


-or-


 

Live Flight TrackerFlight Track Log ✈ N762NC ✈ 25-Aug-2013 ✈ KATL - KORD

Flight Track Log - Related Links

Times and Time Zones

All times are in EDT time to prevent confusion due to time zone crossing. See the N762NC flight status page for this flight to view local times or setup timezone preferences in your user account.

Time Position Orientation Groundspeed Altitude Reporting Facility
EDT Latitude Longitude Course Direction KTS MPH feet Rate Location/Type
05:31PM 33.6500 -84.3667 59° Northeast 187 215 2,400  Level Atlanta TRACON
05:32PM 33.6833 -84.3000 59° Northeast 262 302 4,600 2,460 Climbing Atlanta TRACON
05:33PM 33.7333 -84.2500 40° Northeast 261 300 7,400 2,160 Climbing Atlanta TRACON
05:34PM 33.8000 -84.3000 328° Northwest 298 343 9,000 1,380 Climbing Atlanta TRACON
05:36PM 33.9606 -84.4269 327° Northwest 343 395 11,900 1,560 Climbing Atlanta Center
05:37PM 34.0439 -84.5000 324° Northwest 367 422 14,000 1,980 Climbing Atlanta Center
05:38PM 34.1356 -84.5558 333° Northwest 367 422 15,900 1,800 Climbing Atlanta Center
05:39PM 34.2378 -84.5789 349° North 367 422 17,600 1,500 Climbing Atlanta Center
05:40PM 34.3419 -84.6150 344° North 380 437 18,900 1,200 Climbing Atlanta Center
05:41PM 34.4481 -84.6433 348° North 385 443 20,100 1,260 Climbing Atlanta Center
05:42PM 34.5669 -84.6744 348° North 391 450 21,500 1,200 Climbing Atlanta Center
05:43PM 34.6775 -84.7006 349° North 403 464 22,500 1,200 Climbing Atlanta Center
05:44PM 34.7942 -84.7292 349° North 408 470 24,000 1,200 Climbing Atlanta Center
05:45PM 34.9086 -84.7581 348° North 413 475 25,000 1,080 Climbing Atlanta Center
05:46PM 35.0256 -84.7794 351° North 418 481 26,200 1,140 Climbing Atlanta Center
05:47PM 35.1422 -84.8058 350° North 423 487 27,300 840 Climbing Atlanta Center
05:48PM 35.2589 -84.8375 348° North 428 493 27,900 600 Climbing Atlanta Center
05:49PM 35.3797 -84.8614 351° North 434 499 28,600 720 Climbing Atlanta Center
05:50PM 35.4983 -84.8983 346° North 434 499 29,400 900 Climbing Atlanta Center
05:51PM 35.6192 -84.9328 347° North 434 499 30,400 840 Climbing Atlanta Center
05:52PM 35.7358 -84.9597 349° North 434 499 31,100 600 Climbing Atlanta Center
05:53PM 35.8586 -84.9892 349° North 429 494 31,600 600 Climbing Atlanta Center
05:54PM 35.9506 -85.0306 340° North 450 518 32,200 480 Climbing Indianapolis Center
05:55PM 36.0586 -85.0767 341° North 447 514 32,600 540 Climbing Indianapolis Center
05:56PM 36.1978 -85.1389 340° North 442 509 33,400 600 Climbing Indianapolis Center
05:57PM 36.3117 -85.1917 340° North 437 503 33,900 240 Climbing Indianapolis Center
05:58PM 36.4297 -85.2244 347° North 438 504 34,000  Climbing Indianapolis Center
05:59PM 36.5511 -85.2442 353° North 438 504 34,000  Level Indianapolis Center
06:00PM 36.6703 -85.2581 355° North 432 497 34,000  Level Indianapolis Center
06:01PM 36.7919 -85.2669 357° North 436 502 34,000  Level Indianapolis Center
06:02PM 36.9353 -85.2906 352° North 434 499 34,000  Level Indianapolis Center
06:03PM 37.0542 -85.3014 356° North 435 501 34,000  Level Indianapolis Center
06:04PM 37.1747 -85.3147 355° North 434 499 34,000  Level Indianapolis Center
06:05PM 37.2897 -85.3717 339° North 441 507 34,000  Level Indianapolis Center
06:06PM 37.4064 -85.4192 342° North 439 505 34,000  Level Indianapolis Center
06:08PM 37.5450 -85.4631 346° North 439 505 34,000  Level Indianapolis Center
06:09PM 37.6667 -85.4836 352° North 446 513 34,000  Level Indianapolis Center
06:10PM 37.7892 -85.4994 354° North 444 511 34,000  Level Indianapolis Center
06:11PM 37.9056 -85.5067 357° North 450 518 34,000  Level Indianapolis Center
06:12PM 38.0258 -85.5419 347° North 444 511 34,000  Level Indianapolis Center
06:13PM 38.1736 -85.5872 346° North 452 520 34,000  Level Indianapolis Center
06:14PM 38.2958 -85.5964 357° North 445 512 34,000  Level Indianapolis Center
06:15PM 38.4214 -85.6011 358° North 448 516 34,000  Level Indianapolis Center
06:16PM 38.5436 -85.5997 North 443 510 34,000 -300 Level Indianapolis Center
06:17PM 38.6744 -85.5981 North 447 514 33,500 -660 Descending Indianapolis Center
06:18PM 38.7997 -85.5856 North 451 519 32,700 -960 Descending Indianapolis Center
06:19PM 38.9169 -85.5903 358° North 427 491 31,600 -1,440 Descending Indianapolis Center
06:20PM 39.0547 -85.5989 357° North 418 481 29,800 -1,620 Descending Indianapolis Center
06:21PM 39.1503 -85.5272 30° Northeast 408 470 28,300 -900 Descending Indianapolis Center
06:22PM 39.2403 -85.4428 36° Northeast 403 464 28,000 -180 Descending Indianapolis Center
06:23PM 39.3294 -85.3622 35° Northeast 398 458 28,000  Level Indianapolis Center
06:24PM 39.4161 -85.2819 36° Northeast 391 450 28,000  Level Indianapolis Center
06:25PM 39.5311 -85.2489 12° North 384 442 28,000  Level Indianapolis Center
06:26PM 39.6261 -85.2978 338° Northwest 373 429 28,000  Level Indianapolis Center
06:27PM 39.7161 -85.3694 329° Northwest 388 447 28,000  Level Indianapolis Center
06:28PM 39.7639 -85.4928 297° West 393 452 28,000 -240 Level Indianapolis Center
06:29PM 39.8342 -85.5867 314° West 393 452 27,600 -660 Descending Indianapolis Center
06:30PM 39.9614 -85.6150 350° North 393 452 26,700 -780 Descending Indianapolis Center
06:31PM 40.0650 -85.6253 356° North 381 438 26,000 -960 Descending Indianapolis Center
06:32PM 40.1722 -85.6272 359° North 386 444 24,800 -960 Descending Indianapolis Center
06:33PM 40.2908 -85.6369 356° North 423 487 24,100 -420 Descending Indianapolis Center
06:34PM 40.4069 -85.6669 349° North 427 491 24,000 -120 Descending Indianapolis Center
06:35PM 40.4769 -85.6808 351° North 427 491 24,000 -540 Level Chicago Center
06:36PM 40.5881 -85.7153 347° North 418 481 23,200 -1,020 Descending Chicago Center
06:37PM 40.7086 -85.7742 340° North 385 443 21,900 -1,020 Descending Chicago Center
06:38PM 40.8089 -85.8022 348° North 374 430 21,100 -840 Descending Chicago Center
06:39PM 40.9086 -85.8306 348° North 368 423 20,200 -540 Descending Chicago Center
06:40PM 41.0033 -85.8911 334° Northwest 375 432 20,000 -120 Descending Chicago Center
06:41PM 41.1039 -85.9447 338° Northwest 383 441 20,000  Level Chicago Center
06:42PM 41.1953 -86.0331 324° Northwest 414 476 20,000  Level Chicago Center
06:43PM 41.2703 -86.1483 311° West 413 475 20,000 -540 Level Chicago Center
06:44PM 41.3575 -86.2858 310° West 404 465 18,900 -1,140 Descending Chicago Center
06:45PM 41.4317 -86.3944 312° West 397 457 17,700 -1,140 Descending Chicago Center
06:46PM 41.5022 -86.5050 310° West 393 452 16,600 -1,200 Descending Chicago Center
06:47PM 41.5575 -86.6281 301° West 387 445 15,300 -1,680 Descending Chicago Center
06:48PM 41.6275 -86.7406 310° West 370 426 13,200 -1,560 Descending Chicago Center
06:49PM 41.7228 -86.7744 345° North 359 413 12,100 -540 Descending Chicago Center
06:51PM 41.8150 -86.8089 344° North 350 403 12,100  Level Chicago Center
06:52PM 41.9242 -86.8669 338° Northwest 354 407 12,100 -420 Level Chicago Center
06:53PM 41.9864 -86.9547 314° West 363 418 11,300 -900 Descending Chicago Center
06:54PM 41.9772 -87.0736 264° West 327 376 10,300 -960 Descending Chicago Center
06:55PM 41.9858 -87.1767 276° West 284 327 9,300 -960 Descending Chicago Center
06:56PM 41.9822 -87.2700 267° West 255 293 8,300 -900 Descending Chicago Center
06:57PM 41.9844 -87.3714 272° West 229 264 7,500 -660 Descending Chicago Center
06:58PM 41.9828 -87.4403 268° West 185 213 7,000 -780 Descending Chicago Center
06:59PM 41.9819 -87.5081 269° West 181 208 6,000 -960 Descending Chicago Center
07:00PM 41.9833 -87.5714 272° West 173 199 5,100 -900 Descending Chicago Center
07:01PM 41.9833 -87.6369 270° West 173 199 4,200 -1,020 Descending Chicago Center
07:02PM 41.9839 -87.7161 271° West 177 204 3,100 -1,020 Descending Chicago Center
07:03PM 41.9836 -87.7794 270° West 175 201 2,200 -900 Descending Chicago Center
07:04PM 41.9833 -87.8333 270° West 143 165 1,300 -900 Descending Chicago TRACON
07:07PM 41.9667 -87.9000 270° West  Level FlightAware Approximate